Time;durP1;ratioP1;P1;durP2;ratioP2;P2;SDS_P1;SDS_P2;PMS_P1;PMS_P2;Temp;Humidity;BMP_temperature;BMP_pressure;BME280_temperature;BME280_humidity;BME280_pressure;Samples;Min_cycle;Max_cycle;Signal;HPM_P1;HPM_P2
2023/07/17 00:00:31;;;;;;;2.90;1.70;;;;;;;18.58;100.00;99999.46;109030;1253;60671;-50
2023/07/17 00:03:11;;;;;;;4.10;1.50;;;;;;;18.58;100.00;100001.23;108993;1253;59278;-50
2023/07/17 00:05:39;;;;;;;3.30;1.10;;;;;;;18.59;100.00;100003.89;109076;1253;73037;-50
2023/07/17 00:08:06;;;;;;;2.70;1.00;;;;;;;18.60;100.00;100001.27;109061;1256;67044;-50
2023/07/17 00:10:33;;;;;;;6.80;1.70;;;;;;;18.62;100.00;99996.16;109098;1254;72680;-50
2023/07/17 00:13:01;;;;;;;4.00;1.20;;;;;;;18.66;100.00;99996.64;109097;1254;61721;-50
2023/07/17 00:15:28;;;;;;;2.40;1.20;;;;;;;18.63;100.00;99997.77;109147;1256;61645;-50
2023/07/17 00:17:56;;;;;;;1.60;1.20;;;;;;;18.61;100.00;99999.52;109104;1253;73111;-50
2023/07/17 00:20:23;;;;;;;4.40;1.70;;;;;;;18.62;100.00;99994.73;105832;1258;66767;-47
2023/07/17 00:22:50;;;;;;;4.90;1.40;;;;;;;18.64;100.00;99993.46;105348;1254;71080;-48
2023/07/17 00:25:18;;;;;;;5.10;1.40;;;;;;;18.66;100.00;99994.79;105393;1254;60439;-49
2023/07/17 00:27:45;;;;;;;1.70;1.40;;;;;;;18.67;100.00;99989.59;105324;1259;60350;-49
2023/07/17 00:30:13;;;;;;;2.80;1.20;;;;;;;18.68;100.00;99983.36;105291;1254;73730;-50
2023/07/17 00:32:40;;;;;;;1.50;1.40;;;;;;;18.68;100.00;99986.05;105330;1261;67047;-49
2023/07/17 00:35:08;;;;;;;6.10;2.00;;;;;;;18.67;100.00;99982.52;105331;1259;73148;-50
2023/07/17 00:37:35;;;;;;;2.90;1.60;;;;;;;18.66;100.00;99981.71;105316;1257;61651;-48
2023/07/17 00:40:04;;;;;;;1.30;1.10;;;;;;;18.67;100.00;99978.02;105299;1254;60474;-48
2023/07/17 00:42:31;;;;;;;2.40;1.20;;;;;;;18.69;100.00;99982.23;105329;1259;72625;-49
2023/07/17 00:44:59;;;;;;;3.40;1.20;;;;;;;18.69;100.00;99982.72;105329;1253;66711;-49
2023/07/17 00:47:27;;;;;;;1.20;1.10;;;;;;;18.69;100.00;99977.63;105285;1255;71824;-49
2023/07/17 00:49:55;;;;;;;1.80;1.30;;;;;;;18.69;100.00;99976.34;105236;1256;60640;-49
2023/07/17 00:52:22;;;;;;;1.80;1.70;;;;;;;18.69;100.00;99973.98;105680;1259;60517;-50
2023/07/17 00:54:50;;;;;;;3.00;1.10;;;;;;;18.70;100.00;99973.25;105198;1259;74804;-50
2023/07/17 00:57:17;;;;;;;3.50;1.40;;;;;;;18.70;100.00;99975.95;105209;1259;66721;-49
2023/07/17 00:59:45;;;;;;;3.00;1.50;;;;;;;18.71;100.00;99973.55;105264;1255;73545;-50
2023/07/17 01:02:12;;;;;;;2.00;1.30;;;;;;;18.71;100.00;99972.20;105267;1259;61646;-51
2023/07/17 01:04:44;;;;;;;3.10;1.50;;;;;;;18.71;100.00;99973.64;105465;1260;60609;-51
2023/07/17 01:07:16;;;;;;;1.70;1.30;;;;;;;18.72;100.00;99973.06;106385;1260;73875;-49
2023/07/17 01:09:43;;;;;;;1.20;1.10;;;;;;;18.72;100.00;99972.67;105400;1259;66188;-49
2023/07/17 01:12:11;;;;;;;4.10;1.00;;;;;;;18.72;100.00;99974.84;105225;1255;72677;-49
2023/07/17 01:14:40;;;;;;;1.50;1.20;;;;;;;18.72;100.00;99973.80;105611;1260;60823;-49
2023/07/17 01:17:08;;;;;;;2.30;1.50;;;;;;;18.71;100.00;99975.28;105365;1259;60803;-48
2023/07/17 01:19:35;;;;;;;1.60;1.30;;;;;;;18.71;100.00;99972.63;105426;1257;73910;-50
2023/07/17 01:22:10;;;;;;;2.40;1.10;;;;;;;18.71;100.00;99973.52;105618;1260;66649;-50
2023/07/17 01:24:37;;;;;;;2.80;1.10;;;;;;;18.71;100.00;99970.62;108233;1258;73417;-50
2023/07/17 01:27:04;;;;;;;4.10;1.20;;;;;;;18.71;100.00;99971.89;105382;1267;60504;-50
2023/07/17 01:29:35;;;;;;;1.20;1.10;;;;;;;18.71;100.00;99970.42;105464;1259;60569;-51
2023/07/17 01:32:03;;;;;;;3.60;1.20;;;;;;;18.71;100.00;99968.45;105534;1257;73995;-49
2023/07/17 01:34:30;;;;;;;2.90;1.20;;;;;;;18.70;100.00;99969.42;105422;1254;65784;-49
2023/07/17 01:36:58;;;;;;;5.00;1.30;;;;;;;18.69;100.00;99968.77;105537;1257;72692;-50
2023/07/17 01:39:25;;;;;;;1.30;1.20;;;;;;;18.66;100.00;99968.96;105390;1259;61696;-50
2023/07/17 01:41:53;;;;;;;2.30;1.50;;;;;;;18.61;100.00;99971.36;105292;1259;59656;-49
2023/07/17 01:44:20;;;;;;;1.50;1.10;;;;;;;18.58;100.00;99971.77;105378;1256;72949;-50
2023/07/17 01:46:47;;;;;;;1.50;1.30;;;;;;;18.56;100.00;99972.66;105334;1259;66863;-50
2023/07/17 01:49:15;;;;;;;1.50;1.10;;;;;;;18.53;100.00;99970.17;105672;1257;72698;-49
2023/07/17 01:51:42;;;;;;;2.10;1.30;;;;;;;18.49;100.00;99975.15;105424;1255;60783;-48
2023/07/17 01:54:10;;;;;;;2.20;1.20;;;;;;;18.45;100.00;99975.65;105432;1254;60497;-48
2023/07/17 01:56:37;;;;;;;3.90;1.70;;;;;;;18.41;100.00;99974.48;105310;1261;72805;-49
2023/07/17 01:59:04;;;;;;;2.40;1.20;;;;;;;18.38;100.00;99980.15;105388;1263;68711;-49
2023/07/17 02:01:33;;;;;;;4.50;1.00;;;;;;;18.36;100.00;99977.98;105537;1259;72434;-50
2023/07/17 02:04:01;;;;;;;1.90;1.40;;;;;;;18.36;100.00;99978.75;106325;1254;61824;-49
2023/07/17 02:06:28;;;;;;;1.60;1.30;;;;;;;18.36;100.00;99976.96;105306;1261;60519;-48
2023/07/17 02:08:56;;;;;;;4.60;1.50;;;;;;;18.36;100.00;99977.48;105416;1260;72670;-51
2023/07/17 02:11:27;;;;;;;3.70;1.20;;;;;;;18.37;100.00;99977.76;105385;1257;66145;-50
2023/07/17 02:13:54;;;;;;;1.40;1.30;;;;;;;18.36;100.00;99973.62;105620;1260;72661;-49
2023/07/17 02:16:22;;;;;;;3.00;1.50;;;;;;;18.35;100.00;99976.44;105350;1259;60496;-49
2023/07/17 02:18:52;;;;;;;1.80;1.50;;;;;;;18.32;100.00;99979.02;105421;1255;60551;-49
2023/07/17 02:21:20;;;;;;;2.30;1.10;;;;;;;18.30;100.00;99982.29;105775;1260;76358;-50
2023/07/17 02:23:47;;;;;;;1.30;1.20;;;;;;;18.29;100.00;99979.23;105339;1257;67603;-49
2023/07/17 02:26:15;;;;;;;3.10;1.10;;;;;;;18.31;100.00;99983.81;105336;1257;72012;-49
2023/07/17 02:28:42;;;;;;;2.90;1.60;;;;;;;18.32;100.00;99980.67;105235;1257;62262;-49
2023/07/17 02:31:10;;;;;;;1.40;1.30;;;;;;;18.33;100.00;99985.15;105503;1264;60540;-49
2023/07/17 02:33:37;;;;;;;1.60;1.20;;;;;;;18.35;100.00;99983.17;105417;1255;73794;-49
2023/07/17 02:36:05;;;;;;;3.30;1.50;;;;;;;18.33;100.00;99985.52;105429;1261;66291;-50
2023/07/17 02:38:32;;;;;;;2.80;1.40;;;;;;;18.27;100.00;99991.26;105331;1256;72122;-49
2023/07/17 02:41:00;;;;;;;3.20;1.30;;;;;;;18.21;100.00;99993.55;105381;1255;61665;-49
2023/07/17 02:43:28;;;;;;;2.90;1.20;;;;;;;18.17;100.00;99995.10;109129;1252;60051;-50
2023/07/17 02:45:55;;;;;;;1.70;1.40;;;;;;;18.14;100.00;99999.52;109234;1254;73962;-51
2023/07/17 02:48:22;;;;;;;4.30;1.20;;;;;;;18.11;100.00;100004.45;109064;1254;66755;-51
2023/07/17 02:50:50;;;;;;;2.50;1.30;;;;;;;18.09;100.00;100004.95;108901;1253;72644;-50
2023/07/17 02:53:18;;;;;;;2.30;1.30;;;;;;;18.09;100.00;99997.67;109074;1259;61931;-50
2023/07/17 02:55:45;;;;;;;5.10;1.60;;;;;;;18.13;100.00;100003.14;109188;1253;58808;-51
2023/07/17 02:58:17;;;;;;;4.20;1.40;;;;;;;18.20;100.00;99999.98;109042;1258;73837;-50
2023/07/17 03:00:44;;;;;;;2.00;1.10;;;;;;;18.25;100.00;100001.18;109117;1254;66843;-51
2023/07/17 03:03:12;;;;;;;2.50;1.20;;;;;;;18.32;100.00;100004.33;109150;1254;73253;-51
2023/07/17 03:05:39;;;;;;;2.50;1.50;;;;;;;18.37;100.00;100005.35;109056;1254;61820;-50
2023/07/17 03:08:06;;;;;;;6.40;1.50;;;;;;;18.41;100.00;100007.05;109011;1254;59446;-51
2023/07/17 03:10:33;;;;;;;4.40;1.60;;;;;;;18.46;100.00;100006.84;109050;1257;74678;-50
2023/07/17 03:13:01;;;;;;;4.00;1.10;;;;;;;18.51;100.00;100009.33;109013;1254;69420;-51
2023/07/17 03:15:28;;;;;;;2.20;1.10;;;;;;;18.56;100.00;100007.02;108913;1257;72654;-50
2023/07/17 03:17:56;;;;;;;4.30;1.40;;;;;;;18.61;100.00;100007.34;108812;1254;61722;-51
2023/07/17 03:20:23;;;;;;;2.60;1.10;;;;;;;18.67;100.00;100011.23;108932;1255;58943;-51
2023/07/17 03:22:51;;;;;;;2.10;1.50;;;;;;;18.73;100.00;100015.66;109058;1255;73126;-50
2023/07/17 03:25:18;;;;;;;1.80;1.10;;;;;;;18.79;100.00;100018.65;107254;1260;67580;-50
2023/07/17 03:27:46;;;;;;;2.00;1.00;;;;;;;18.84;100.00;100021.33;105352;1259;72432;-50
2023/07/17 03:30:14;;;;;;;2.70;1.30;;;;;;;18.89;100.00;100022.55;105351;1254;63404;-50
2023/07/17 03:32:41;;;;;;;1.70;1.20;;;;;;;18.94;100.00;100022.96;105364;1258;60601;-48
2023/07/17 03:35:09;;;;;;;3.20;1.40;;;;;;;18.99;100.00;100020.35;105572;1258;73785;-48
2023/07/17 03:37:36;;;;;;;2.80;1.30;;;;;;;19.04;100.00;100019.61;105311;1254;68197;-50
2023/07/17 03:40:04;;;;;;;1.60;1.50;;;;;;;19.09;100.00;100022.98;105399;1260;72706;-50
2023/07/17 03:42:31;;;;;;;2.40;1.90;;;;;;;19.13;100.00;100022.51;105212;1261;61590;-50
2023/07/17 03:44:59;;;;;;;3.80;1.60;;;;;;;19.16;100.00;100023.88;105508;1258;60662;-49
2023/07/17 03:47:28;;;;;;;4.10;1.90;;;;;;;19.20;100.00;100026.16;105236;1257;74774;-49
2023/07/17 03:49:55;;;;;;;5.00;1.50;;;;;;;19.23;100.00;100027.01;105268;1255;68093;-47
2023/07/17 03:52:23;;;;;;;4.10;1.80;;;;;;;19.25;100.00;100033.73;105184;1259;72641;-48
2023/07/17 03:54:51;;;;;;;3.00;1.90;;;;;;;19.28;100.00;100028.95;105262;1255;61704;-50
2023/07/17 03:57:18;;;;;;;1.70;1.20;;;;;;;19.34;100.00;100026.34;105252;1255;60597;-49
2023/07/17 03:59:55;;;;;;;1.20;1.00;;;;;;;19.40;100.00;100031.83;105330;1260;73915;-49
2023/07/17 04:02:52;;;;;;;2.10;1.00;;;;;;;19.48;100.00;100025.70;105186;1259;67650;-48
2023/07/17 04:05:39;;;;;;;1.60;1.50;;;;;;;19.53;100.00;100028.75;105232;1258;71435;-49
2023/07/17 04:08:09;;;;;;;3.30;1.20;;;;;;;19.60;100.00;100031.30;105305;1268;62821;-50
2023/07/17 04:12:11;;;;;;;1.60;1.10;;;;;;;19.71;100.00;100035.34;102396;1294;601165;-48
2023/07/17 04:14:39;;;;;;;3.60;1.10;;;;;;;19.75;100.00;100037.55;104216;1271;61711;-50
2023/07/17 04:17:07;;;;;;;2.90;1.70;;;;;;;19.80;100.00;100040.41;104860;1263;59249;-50
2023/07/17 04:19:34;;;;;;;8.10;1.40;;;;;;;19.87;100.00;100036.60;104678;1269;71510;-51
2023/07/17 04:22:03;;;;;;;8.60;1.80;;;;;;;19.94;100.00;100033.60;105177;1264;65505;-50
2023/07/17 04:24:30;;;;;;;2.10;1.40;;;;;;;20.02;100.00;100031.48;104298;1269;72869;-51
2023/07/17 04:26:58;;;;;;;4.00;1.50;;;;;;;20.11;100.00;100030.37;104232;1260;229088;-47
2023/07/17 04:29:25;;;;;;;30.40;7.50;;;;;;;20.21;100.00;100027.54;104400;1260;60266;-49
2023/07/17 04:31:56;;;;;;;15.10;5.80;;;;;;;20.32;100.00;100027.14;104820;1264;72973;-49
2023/07/17 04:34:24;;;;;;;2.30;1.90;;;;;;;20.42;100.00;100025.77;104676;1260;67566;-50
2023/07/17 04:36:53;;;;;;;3.20;1.70;;;;;;;20.50;100.00;100027.27;105065;1264;71836;-49
2023/07/17 04:39:20;;;;;;;4.50;2.30;;;;;;;20.60;100.00;100026.77;105482;1255;60397;-49
2023/07/17 04:41:49;;;;;;;6.10;2.10;;;;;;;20.70;100.00;100027.74;105632;1256;60559;-50
2023/07/17 04:44:18;;;;;;;4.50;2.10;;;;;;;20.80;100.00;100025.98;105488;1250;72970;-50
2023/07/17 04:46:46;;;;;;;3.10;1.40;;;;;;;20.91;100.00;100021.56;105955;1253;67574;-49
2023/07/17 04:49:14;;;;;;;1.70;1.60;;;;;;;21.01;100.00;100024.14;106036;1257;72778;-51
2023/07/17 04:51:42;;;;;;;2.20;1.50;;;;;;;21.11;100.00;100022.14;105396;1251;61669;-49
2023/07/17 04:54:09;;;;;;;5.50;1.40;;;;;;;21.21;100.00;100025.50;105475;1253;59716;-51
2023/07/17 04:56:37;;;;;;;5.90;2.30;;;;;;;21.32;100.00;100024.34;105416;1252;71809;-48
2023/07/17 04:59:06;;;;;;;7.90;3.30;;;;;;;21.43;100.00;100024.27;105385;1257;68293;-50
2023/07/17 05:01:33;;;;;;;4.90;1.40;;;;;;;21.54;100.00;100023.08;105320;1258;72740;-50
2023/07/17 05:04:01;;;;;;;2.70;1.60;;;;;;;21.65;100.00;100024.33;105707;1251;61640;-50
2023/07/17 05:06:30;;;;;;;2.60;1.40;;;;;;;21.75;100.00;100023.02;105477;1254;60065;-51
2023/07/17 05:08:57;;;;;;;2.50;1.20;;;;;;;21.87;100.00;100016.65;105427;1253;72987;-51
2023/07/17 05:11:28;;;;;;;2.10;1.30;;;;;;;21.97;100.00;100018.33;105438;1259;65498;-50
2023/07/17 05:13:55;;;;;;;1.30;1.20;;;;;;;22.07;100.00;100015.13;105489;1257;72639;-49
2023/07/17 05:16:23;;;;;;;7.20;1.50;;;;;;;22.18;100.00;100013.94;105544;1258;62685;-50
2023/07/17 05:18:51;;;;;;;3.70;1.20;;;;;;;22.29;100.00;100010.61;105493;1259;59675;-50
2023/07/17 05:21:19;;;;;;;3.40;1.20;;;;;;;22.39;100.00;100007.99;106300;1259;71603;-50
2023/07/17 05:23:47;;;;;;;2.40;1.10;;;;;;;22.49;100.00;100002.70;105439;1254;68787;-50
2023/07/17 05:26:15;;;;;;;3.60;1.30;;;;;;;22.59;100.00;99998.25;105293;1257;73006;-50
2023/07/17 05:28:47;;;;;;;2.70;1.50;;;;;;;22.68;100.00;99998.31;105765;1253;59752;-50
2023/07/17 05:31:15;;;;;;;2.10;1.10;;;;;;;22.77;100.00;100002.09;106015;1252;59647;-50
2023/07/17 05:33:43;;;;;;;4.30;1.10;;;;;;;22.86;100.00;100010.20;105284;1252;73010;-49
2023/07/17 05:36:11;;;;;;;4.00;1.40;;;;;;;22.93;100.00;100010.20;105401;1257;68022;-49
2023/07/17 05:38:38;;;;;;;4.80;1.40;;;;;;;23.02;100.00;100013.77;105575;1253;73849;-50
2023/07/17 05:41:06;;;;;;;2.20;1.10;;;;;;;23.11;100.00;100006.25;105513;1253;59786;-50
2023/07/17 05:43:34;;;;;;;1.90;1.20;;;;;;;23.21;100.00;100003.67;105247;1260;59551;-49
2023/07/17 05:46:10;;;;;;;2.60;0.90;;;;;;;23.32;100.00;100002.91;106665;1254;73011;-48
2023/07/17 05:48:38;;;;;;;1.80;1.10;;;;;;;23.43;100.00;100003.55;109243;1256;66438;-51
2023/07/17 05:51:08;;;;;;;2.80;1.10;;;;;;;23.54;100.00;100002.63;109286;1251;72655;-50
2023/07/17 05:53:36;;;;;;;3.60;1.00;;;;;;;23.66;100.00;99999.46;109158;1253;61460;-51
2023/07/17 05:56:03;;;;;;;2.30;1.20;;;;;;;23.77;100.00;99995.95;109046;1253;60635;-51
2023/07/17 05:58:33;;;;;;;2.30;1.00;;;;;;;23.89;100.00;99994.61;109076;1251;72150;-51
2023/07/17 06:01:00;;;;;;;1.80;1.10;;;;;;;23.98;100.00;99992.77;109054;1254;65711;-51
2023/07/17 06:03:29;;;;;;;1.90;1.20;;;;;;;24.05;100.00;99992.20;109094;1251;71309;-51
2023/07/17 06:05:56;;;;;;;3.10;1.10;;;;;;;24.10;100.00;99993.30;109291;1252;60229;-51
2023/07/17 06:08:24;;;;;;;1.80;1.20;;;;;;;24.16;100.00;99990.56;109323;1252;60874;-51
2023/07/17 06:10:51;;;;;;;2.70;1.70;;;;;;;24.19;100.00;99989.85;109146;1254;71744;-51
2023/07/17 06:13:20;;;;;;;1.80;1.00;;;;;;;24.23;100.00;99989.83;109152;1254;65604;-51
2023/07/17 06:15:47;;;;;;;1.00;0.90;;;;;;;24.29;100.00;99993.67;109130;1256;71401;-51
2023/07/17 06:18:15;;;;;;;4.20;1.10;;;;;;;24.35;100.00;99991.54;109073;1254;60358;-52
2023/07/17 06:20:42;;;;;;;2.10;0.90;;;;;;;24.42;100.00;99984.62;109109;1251;58750;-52
2023/07/17 06:23:09;;;;;;;2.70;1.20;;;;;;;24.50;100.00;99978.30;109164;1251;73036;-51
2023/07/17 06:25:38;;;;;;;1.40;0.90;;;;;;;24.57;100.00;99983.29;107540;1258;66933;-49
2023/07/17 06:28:07;;;;;;;3.40;1.00;;;;;;;24.63;100.00;99980.80;105097;1257;72685;-51
2023/07/17 06:30:34;;;;;;;1.50;1.00;;;;;;;24.70;100.00;99978.90;105972;1254;60442;-50
2023/07/17 06:33:02;;;;;;;3.90;1.80;;;;;;;24.77;100.00;99975.14;105288;1257;60448;-51
2023/07/17 06:35:29;;;;;;;1.10;0.90;;;;;;;24.83;100.00;99974.30;106385;1257;75138;-51
2023/07/17 06:37:57;;;;;;;4.30;1.20;;;;;;;24.88;100.00;99973.06;105593;1253;65651;-50
2023/07/17 06:40:24;;;;;;;1.50;1.00;;;;;;;24.92;100.00;99974.29;104997;1258;72437;-52
2023/07/17 06:42:52;;;;;;;3.70;1.10;;;;;;;24.96;100.00;99972.40;105031;1257;61189;-52
2023/07/17 06:45:20;;;;;;;5.60;1.80;;;;;;;25.01;100.00;99969.92;105030;1251;61091;-51
2023/07/17 06:47:47;;;;;;;2.00;1.10;;;;;;;25.04;100.00;99965.65;105265;1252;73105;-52
2023/07/17 06:50:15;;;;;;;1.50;1.00;;;;;;;25.08;100.00;99963.03;105359;1259;66797;-52
2023/07/17 06:55:10;;;;;;;1.30;1.10;;;;;;;25.20;100.00;99971.71;102195;1294;600323;-49
2023/07/17 06:57:38;;;;;;;1.70;1.10;;;;;;;25.23;100.00;99967.69;103982;1269;60072;-51
2023/07/17 07:00:06;;;;;;;1.30;1.20;;;;;;;25.29;100.00;99965.05;104077;1266;60661;-51
2023/07/17 07:02:34;;;;;;;1.20;0.90;;;;;;;25.35;100.00;99962.98;104889;1266;71006;-51
2023/07/17 07:05:04;;;;;;;1.50;1.40;;;;;;;25.40;100.00;99961.10;104103;1268;67000;-50
2023/07/17 07:07:31;;;;;;;1.70;1.10;;;;;;;25.46;100.00;99962.30;104475;1266;72688;-49
2023/07/17 07:09:59;;;;;;;2.50;1.10;;;;;;;25.51;100.00;99963.61;104036;1268;212769;-50
2023/07/17 07:12:26;;;;;;;1.40;1.10;;;;;;;25.57;100.00;99963.33;104443;1268;59222;-52
2023/07/17 07:14:55;;;;;;;1.30;1.10;;;;;;;25.63;100.00;99961.55;104533;1264;71893;-49
2023/07/17 07:17:22;;;;;;;6.20;0.90;;;;;;;25.70;100.00;99955.48;104572;1268;67573;-50
2023/07/17 07:19:51;;;;;;;1.10;0.90;;;;;;;25.77;100.00;99957.48;104535;1265;71459;-49
2023/07/17 07:22:18;;;;;;;1.00;1.00;;;;;;;25.84;100.00;99958.38;104279;1266;59963;-49
2023/07/17 07:24:46;;;;;;;1.50;0.90;;;;;;;25.90;100.00;99954.23;103961;1268;59560;-50
2023/07/17 07:27:14;;;;;;;2.10;1.00;;;;;;;25.97;100.00;99950.66;104283;1268;72301;-50
2023/07/17 07:29:41;;;;;;;2.50;1.10;;;;;;;26.05;100.00;99947.27;104790;1269;66750;-50
2023/07/17 07:32:08;;;;;;;1.80;0.90;;;;;;;26.12;100.00;99947.18;104406;1266;72407;-50
2023/07/17 07:34:38;;;;;;;2.10;0.70;;;;;;;26.19;100.00;99941.27;104365;1266;60006;-50
2023/07/17 07:37:05;;;;;;;1.30;0.90;;;;;;;26.25;100.00;99938.92;104052;1269;60615;-49
2023/07/17 07:39:32;;;;;;;1.90;1.00;;;;;;;26.31;100.00;99934.95;104206;1268;73458;-51
2023/07/17 07:42:00;;;;;;;1.10;1.00;;;;;;;26.36;100.00;99927.75;104516;1269;66206;-50
2023/07/17 07:44:27;;;;;;;3.70;1.00;;;;;;;26.43;100.00;99925.45;104373;1264;72650;-50
2023/07/17 07:46:54;;;;;;;1.30;1.10;;;;;;;26.49;100.00;99927.64;104627;1269;60025;-49
2023/07/17 07:49:22;;;;;;;2.10;1.00;;;;;;;26.55;100.00;99920.55;104728;1266;60129;-49
2023/07/17 07:51:50;;;;;;;1.90;1.00;;;;;;;26.61;100.00;99914.92;105030;1264;73210;-51
2023/07/17 07:56:52;;;;;;;1.40;1.00;;;;;;;26.74;100.00;99934.73;102188;1292;601816;-50
2023/07/17 08:01:01;;;;;;;4.20;1.00;;;;;;;26.86;100.00;99938.08;102352;1289;601173;-50
2023/07/17 08:03:29;;;;;;;1.20;0.90;;;;;;;26.90;100.00;99928.65;104637;1269;59360;-49
2023/07/17 08:05:57;;;;;;;1.80;1.00;;;;;;;26.97;100.00;99924.66;108259;1264;59013;-51
2023/07/17 08:08:24;;;;;;;1.10;0.80;;;;;;;27.01;100.00;99920.41;108312;1266;70978;-52
2023/07/17 08:10:52;;;;;;;1.30;0.90;;;;;;;27.08;100.00;99920.16;108251;1264;65507;-52
2023/07/17 08:13:20;;;;;;;2.30;0.90;;;;;;;27.16;100.00;99915.48;108382;1264;71423;-51
2023/07/17 08:15:48;;;;;;;1.00;0.90;;;;;;;27.24;100.00;99916.77;108429;1263;113099;-50
2023/07/17 08:21:12;;;;;;;2.10;1.00;;;;;;;27.43;100.00;99920.92;102186;1298;601230;-50
2023/07/17 08:23:40;;;;;;;1.90;0.80;;;;;;;27.50;100.00;99919.17;104764;1267;59295;-50
2023/07/17 08:26:08;;;;;;;1.10;1.00;;;;;;;27.57;100.00;99913.79;104641;1268;59181;-51
2023/07/17 08:28:36;;;;;;;2.60;0.90;;;;;;;27.64;100.00;99908.40;104839;1266;72043;-51
2023/07/17 08:32:22;;;;;;;1.20;1.10;;;;;;;27.76;100.00;99916.95;102136;1291;600492;-48
2023/07/17 08:34:49;;;;;;;0.80;0.80;;;;;;;27.81;100.00;99921.80;104544;1270;60106;-49
2023/07/17 08:37:16;;;;;;;2.20;0.90;;;;;;;27.86;100.00;99912.23;104683;1269;59997;-50
2023/07/17 08:39:44;;;;;;;3.00;1.00;;;;;;;27.90;100.00;99909.35;104612;1266;70841;-51
2023/07/17 08:42:11;;;;;;;2.60;0.80;;;;;;;27.94;100.00;99909.21;104519;1269;67224;-51
2023/07/17 08:44:39;;;;;;;3.30;0.90;;;;;;;27.98;100.00;99906.56;104438;1263;71418;-51
2023/07/17 08:47:07;;;;;;;1.00;0.90;;;;;;;28.02;100.00;99906.68;108408;1263;194787;-52
2023/07/17 08:49:35;;;;;;;4.40;1.30;;;;;;;28.08;100.00;99905.70;108591;1262;58826;-52
2023/07/17 08:52:04;;;;;;;1.00;0.80;;;;;;;28.15;100.00;99898.59;107826;1263;72250;-49
2023/07/17 08:54:33;;;;;;;1.50;0.90;;;;;;;28.23;100.00;99901.52;104641;1266;67578;-50
2023/07/17 08:57:04;;;;;;;2.40;1.30;;;;;;;28.28;100.00;99902.77;108394;1263;72738;-51
2023/07/17 08:59:33;;;;;;;1.90;0.80;;;;;;;28.30;100.00;99902.60;108435;1263;60141;-51
2023/07/17 09:02:03;;;;;;;0.90;0.90;;;;;;;28.30;100.00;99901.59;106601;1263;60105;-49
2023/07/17 09:04:31;;;;;;;1.10;0.90;;;;;;;28.30;100.00;99897.58;104732;1268;73040;-51
2023/07/17 09:06:58;;;;;;;2.20;0.80;;;;;;;28.32;100.00;99895.48;104575;1263;66963;-51
2023/07/17 09:09:26;;;;;;;1.50;1.20;;;;;;;28.35;100.00;99891.95;104712;1263;71484;-51
2023/07/17 09:12:06;;;;;;;1.80;0.90;;;;;;;28.38;100.00;99890.14;104666;1263;59823;-50
2023/07/17 09:14:35;;;;;;;3.60;1.20;;;;;;;28.43;100.00;99885.77;104970;1268;59251;-49
2023/07/17 09:17:04;;;;;;;2.30;2.20;;;;;;;28.50;100.00;99883.64;104960;1266;73080;-51
2023/07/17 09:19:31;;;;;;;6.60;1.10;;;;;;;28.57;100.00;99878.23;105382;1268;66879;-50
2023/07/17 09:22:01;;;;;;;3.40;0.90;;;;;;;28.63;100.00;99871.38;104744;1267;72894;-51
2023/07/17 09:24:28;;;;;;;1.20;0.90;;;;;;;28.71;100.00;99872.30;105014;1266;59629;-51
2023/07/17 09:26:56;;;;;;;1.00;0.90;;;;;;;28.76;100.00;99874.04;104657;1269;60084;-50
2023/07/17 09:29:24;;;;;;;1.00;0.90;;;;;;;28.79;100.00;99870.48;104459;1266;73142;-51
2023/07/17 09:31:51;;;;;;;1.20;0.90;;;;;;;28.83;100.00;99865.95;104754;1269;65509;-51
2023/07/17 09:34:19;;;;;;;1.20;1.00;;;;;;;28.84;100.00;99866.85;104607;1264;71471;-51
2023/07/17 09:36:51;;;;;;;1.00;0.90;;;;;;;28.86;100.00;99869.52;104541;1263;59650;-50
2023/07/17 09:39:18;;;;;;;1.00;0.90;;;;;;;28.89;100.00;99867.98;104694;1264;59708;-51
2023/07/17 09:41:45;;;;;;;4.00;1.00;;;;;;;28.91;100.00;99860.96;104975;1268;73776;-51
2023/07/17 09:44:16;;;;;;;1.80;1.00;;;;;;;28.93;100.00;99860.27;104398;1263;65815;-50
2023/07/17 09:46:44;;;;;;;1.00;0.90;;;;;;;29.01;100.00;99863.98;104563;1263;72682;-50
2023/07/17 09:49:11;;;;;;;2.70;1.10;;;;;;;29.12;100.00;99864.98;104724;1263;60929;-50
2023/07/17 09:51:39;;;;;;;1.20;1.10;;;;;;;29.23;100.00;99858.38;104374;1270;60393;-52
2023/07/17 09:54:06;;;;;;;3.80;1.50;;;;;;;29.36;100.00;99853.29;104758;1267;73993;-51
2023/07/17 09:56:33;;;;;;;3.40;1.00;;;;;;;29.48;100.00;99847.87;104410;1264;65498;-52
2023/07/17 09:59:14;;;;;;;1.90;1.00;;;;;;;29.60;100.00;99847.48;104304;1269;72807;-51
2023/07/17 10:01:43;;;;;;;1.80;1.10;;;;;;;29.72;100.00;99850.33;104306;1265;59766;-52
2023/07/17 10:04:11;;;;;;;1.10;1.00;;;;;;;29.77;100.00;99849.48;105710;1269;59725;-52
2023/07/17 10:06:38;;;;;;;1.70;1.30;;;;;;;29.78;100.00;99847.98;105708;1263;73398;-50
2023/07/17 10:09:06;;;;;;;2.60;1.10;;;;;;;29.77;100.00;99844.42;104656;1269;66788;-50
2023/07/17 10:11:33;;;;;;;1.80;1.20;;;;;;;29.76;100.00;99836.55;104385;1263;72483;-51
2023/07/17 10:14:01;;;;;;;1.40;1.00;;;;;;;29.76;100.00;99837.74;104114;1263;59675;-51
2023/07/17 10:16:28;;;;;;;2.30;1.00;;;;;;;29.74;100.00;99836.43;104865;1265;59989;-50
2023/07/17 10:18:55;;;;;;;3.30;1.10;;;;;;;29.75;100.00;99831.36;105004;1259;72977;-51
2023/07/17 10:21:23;;;;;;;2.90;1.40;;;;;;;29.76;100.00;99832.28;105399;1262;67226;-51
2023/07/17 10:23:50;;;;;;;1.10;1.00;;;;;;;29.77;100.00;99830.88;105214;1262;72628;-53
2023/07/17 10:26:21;;;;;;;1.50;1.40;;;;;;;29.77;100.00;99826.44;105181;1262;59696;-52
2023/07/17 10:28:52;;;;;;;1.20;1.10;;;;;;;29.78;100.00;99825.38;105148;1256;60004;-52
2023/07/17 10:31:21;;;;;;;1.00;0.90;;;;;;;29.82;100.00;99825.60;105133;1257;73161;-52
2023/07/17 10:33:55;;;;;;;2.50;0.90;;;;;;;29.88;100.00;99824.46;105569;1257;65952;-52
2023/07/17 10:39:29;;;;;;;2.30;1.10;;;;;;;30.07;100.00;99839.56;102228;1298;600418;-51
2023/07/17 10:41:57;;;;;;;1.60;0.90;;;;;;;30.11;100.00;99835.08;104415;1266;60159;-51
2023/07/17 10:44:24;;;;;;;1.20;0.90;;;;;;;30.16;100.00;99827.50;107885;1269;60049;-52
2023/07/17 10:46:51;;;;;;;2.30;0.90;;;;;;;30.21;100.00;99825.71;106708;1266;72151;-51
2023/07/17 10:49:19;;;;;;;5.10;1.10;;;;;;;30.23;100.00;99823.41;104355;1272;67149;-53
2023/07/17 10:51:50;;;;;;;2.60;0.80;;;;;;;30.21;100.00;99820.92;104264;1270;72688;-55
2023/07/17 10:54:18;;;;;;;1.20;1.10;;;;;;;30.20;100.00;99821.08;106316;1268;204313;-51
2023/07/17 10:56:47;;;;;;;1.00;0.90;;;;;;;30.20;100.00;99822.15;104422;1270;59354;-53
2023/07/17 10:59:16;;;;;;;1.90;1.00;;;;;;;30.20;100.00;99821.26;104925;1266;72224;-52
2023/07/17 11:01:44;;;;;;;1.10;1.00;;;;;;;30.20;100.00;99821.13;104449;1271;67281;-51
2023/07/17 11:04:12;;;;;;;2.70;0.90;;;;;;;30.20;100.00;99817.63;106166;1266;71316;-51
2023/07/17 11:06:39;;;;;;;1.60;1.00;;;;;;;30.20;100.00;99824.30;104600;1269;59660;-50
2023/07/17 11:09:07;;;;;;;1.00;0.80;;;;;;;30.18;100.00;99824.49;104601;1271;61044;-51
2023/07/17 11:11:35;;;;;;;1.00;0.90;;;;;;;30.16;100.00;99821.81;105095;1268;73150;-52
2023/07/17 11:14:03;;;;;;;1.30;1.00;;;;;;;30.13;100.00;99827.58;104123;1271;66517;-51
2023/07/17 11:16:30;;;;;;;2.40;0.90;;;;;;;30.08;100.00;99824.98;104445;1270;71464;-54
2023/07/17 11:18:57;;;;;;;1.00;0.80;;;;;;;30.04;100.00;99826.26;104546;1267;60510;-51
2023/07/17 11:21:25;;;;;;;1.00;0.80;;;;;;;29.98;100.00;99824.06;104509;1271;61129;-51
2023/07/17 11:23:54;;;;;;;0.80;0.80;;;;;;;29.92;100.00;99820.56;104431;1279;71878;-51
2023/07/17 11:26:31;;;;;;;1.10;1.00;;;;;;;29.87;100.00;99826.63;104490;1270;67385;-51
2023/07/17 11:28:59;;;;;;;3.20;1.00;;;;;;;29.80;100.00;99828.09;105034;1270;71793;-51
2023/07/17 11:31:32;;;;;;;1.40;0.90;;;;;;;29.73;100.00;99827.89;105323;1266;59651;-51
2023/07/17 11:34:10;;;;;;;3.10;0.90;;;;;;;29.64;100.00;99824.20;104701;1270;59768;-51